Time;durP1;ratioP1;P1;durP2;ratioP2;P2;SDS_P1;SDS_P2;PMS_P1;PMS_P2;Temp;Humidity;BMP_temperature;BMP_pressure;BME280_temperature;BME280_humidity;BME280_pressure;Samples;Min_cycle;Max_cycle;Signal;HPM_P1;HPM_P2
2023/04/07 00:00:24;;;;;;;;;6.00;4.50;;;;;8.96;85.80;101414.69;4990441;28;11405;-70
2023/04/07 00:02:51;;;;;;;;;6.50;6.50;;;;;8.93;85.66;101418.53;4985304;28;10723;-69
2023/04/07 00:05:17;;;;;;;;;7.00;6.50;;;;;8.90;85.38;101419.69;4988341;28;10943;-70
2023/04/07 00:07:44;;;;;;;;;10.25;8.75;;;;;8.89;85.27;101415.34;4988882;28;10700;-67
2023/04/07 00:10:22;;;;;;;;;6.50;6.00;;;;;8.87;85.49;101417.38;4982204;28;10812;-66
2023/04/07 00:12:49;;;;;;;;;8.00;7.00;;;;;8.89;85.97;101418.03;4990974;28;10790;-67
2023/04/07 00:15:16;;;;;;;;;14.00;10.00;;;;;8.88;85.64;101413.66;4990988;28;10856;-67
2023/04/07 00:17:43;;;;;;;;;9.25;8.00;;;;;8.90;85.68;101426.91;4972756;28;10958;-66
2023/04/07 00:20:10;;;;;;;;;12.50;10.00;;;;;8.91;84.86;101417.84;4990629;28;10841;-66
2023/04/07 00:22:36;;;;;;;;;11.25;9.00;;;;;8.91;85.80;101425.91;4990996;28;10915;-69
2023/04/07 00:25:03;;;;;;;;;9.00;8.50;;;;;8.91;85.64;101432.13;4974637;28;10918;-69
2023/04/07 00:27:29;;;;;;;;;10.00;8.00;;;;;8.92;85.87;101435.66;4971196;28;11593;-66
2023/04/07 00:29:56;;;;;;;;;8.75;7.00;;;;;8.93;85.35;101433.81;4971437;28;10802;-68
2023/04/07 00:32:22;;;;;;;;;11.25;9.00;;;;;8.94;85.58;101440.84;4972904;28;10670;-68
2023/04/07 00:34:49;;;;;;;;;8.25;7.75;;;;;8.98;85.53;101442.19;4987777;28;10848;-69
2023/04/07 00:37:16;;;;;;;;;10.00;9.25;;;;;8.99;85.63;101431.25;4969547;28;10974;-69
2023/04/07 00:39:42;;;;;;;;;12.75;11.00;;;;;9.02;85.43;101427.41;4974402;28;10942;-66
2023/04/07 00:42:09;;;;;;;;;13.00;9.25;;;;;9.03;85.01;101432.59;4973097;28;10936;-68
2023/04/07 00:44:36;;;;;;;;;10.00;8.50;;;;;9.07;85.27;101425.03;4973204;28;10931;-70
2023/04/07 00:47:02;;;;;;;;;8.00;8.00;;;;;9.11;85.03;101434.44;4968987;28;10986;-67
2023/04/07 00:49:30;;;;;;;;;12.00;9.00;;;;;9.11;84.69;101432.59;4982991;28;10711;-68
2023/04/07 00:51:57;;;;;;;;;8.00;8.00;;;;;9.10;85.30;101433.59;4969105;28;11372;-67
2023/04/07 00:54:24;;;;;;;;;8.25;7.00;;;;;9.11;85.34;101435.28;4972628;28;10750;-68
2023/04/07 00:56:51;;;;;;;;;10.00;9.00;;;;;9.12;84.43;101434.28;4970250;28;11658;-68
2023/04/07 00:59:18;;;;;;;;;13.75;13.00;;;;;9.10;84.45;101438.97;4976173;28;11830;-65
2023/04/07 01:02:00;;;;;;;;;9.50;8.25;;;;;9.12;84.35;101436.13;4972990;28;10947;-66
2023/04/07 01:04:34;;;;;;;;;8.50;8.25;;;;;9.10;84.59;101424.72;4978665;28;10923;-66
2023/04/07 01:07:10;;;;;;;;;6.00;6.00;;;;;9.09;84.33;101431.09;4974178;28;10923;-66
2023/04/07 01:09:59;;;;;;;;;9.25;6.75;;;;;9.11;84.34;101443.34;4962434;28;10667;-66
2023/04/07 01:12:42;;;;;;;;;7.00;7.00;;;;;9.09;84.36;101439.16;4971969;28;10758;-68
2023/04/07 01:15:12;;;;;;;;;7.00;6.00;;;;;9.07;84.04;101438.47;4975863;28;10852;-66
2023/04/07 01:17:48;;;;;;;;;6.00;4.50;;;;;9.09;84.66;101445.38;4961944;28;10776;-65
2023/04/07 01:20:18;;;;;;;;;8.25;8.00;;;;;9.12;84.20;101444.19;4966632;28;10618;-66
2023/04/07 01:22:52;;;;;;;;;5.50;5.25;;;;;9.14;84.27;101444.84;4975179;28;10673;-66
2023/04/07 01:25:46;;;;;;;;;8.75;6.00;;;;;9.13;83.89;101435.97;4975944;28;10768;-67
2023/04/07 01:28:38;;;;;;;;;10.00;8.50;;;;;9.13;84.41;101441.34;4950273;28;11387;-66
2023/04/07 01:31:08;;;;;;;;;7.50;5.25;;;;;9.16;83.62;101440.16;4972697;28;10711;-66
2023/04/07 01:33:37;;;;;;;;;9.00;8.50;;;;;9.15;83.81;101443.84;4956762;28;10746;-66
2023/04/07 01:36:06;;;;;;;;;7.50;7.50;;;;;9.05;83.52;101433.28;4990582;28;10681;-69
2023/04/07 01:38:34;;;;;;;;;4.25;3.75;;;;;9.02;83.92;101435.47;4973676;28;10752;-67
2023/04/07 01:41:02;;;;;;;;;3.00;3.00;;;;;9.05;84.15;101444.03;4975859;28;10616;-66
2023/04/07 01:43:29;;;;;;;;;5.00;4.00;;;;;9.10;83.98;101438.97;4976112;28;10684;-67
2023/04/07 01:45:56;;;;;;;;;6.00;4.25;;;;;9.13;83.60;101438.66;4974604;28;10724;-66
2023/04/07 01:48:24;;;;;;;;;4.00;4.00;;;;;9.16;83.34;101445.53;4986541;28;10615;-66
2023/04/07 01:50:53;;;;;;;;;6.00;4.25;;;;;9.15;83.79;101443.84;4985585;28;10561;-67
2023/04/07 01:53:20;;;;;;;;;5.75;5.75;;;;;9.15;83.99;101444.69;4993360;28;10597;-66
2023/04/07 01:55:47;;;;;;;;;5.75;5.50;;;;;9.16;83.60;101448.22;4960098;28;10837;-67
2023/04/07 01:58:14;;;;;;;;;6.00;6.00;;;;;9.16;83.23;101449.06;4952177;28;10649;-65
2023/04/07 02:00:42;;;;;;;;;7.00;5.25;;;;;9.13;83.01;101445.88;4957786;28;10599;-67
2023/04/07 02:03:29;;;;;;;;;5.50;4.00;;;;;9.13;83.77;101448.56;4956459;28;10653;-67
2023/04/07 02:05:59;;;;;;;;;2.75;2.75;;;;;9.12;83.95;101449.56;4969456;28;11205;-66
2023/04/07 02:08:31;;;;;;;;;7.50;6.50;;;;;9.11;84.05;101437.97;4965583;28;10609;-66
2023/04/07 02:11:02;;;;;;;;;4.00;4.00;;;;;9.11;83.14;101446.00;4973443;28;10543;-67
2023/04/07 02:13:34;;;;;;;;;4.25;4.25;;;;;9.11;83.40;101437.13;4972852;28;10621;-66
2023/04/07 02:16:01;;;;;;;;;5.25;4.50;;;;;9.08;83.25;101441.00;4983358;28;10542;-65
2023/04/07 02:18:31;;;;;;;;;6.00;5.00;;;;;9.10;83.28;101446.19;4956314;28;10612;-67
2023/04/07 02:21:01;;;;;;;;;2.00;2.00;;;;;9.09;83.60;101445.38;4975092;28;10759;-68
2023/04/07 02:23:28;;;;;;;;;2.75;2.75;;;;;9.08;83.54;101446.38;4969274;28;11221;-67
2023/04/07 02:25:57;;;;;;;;;5.50;5.50;;;;;9.08;83.92;101450.91;4968730;28;10717;-68
2023/04/07 02:28:23;;;;;;;;;4.75;4.75;;;;;9.09;84.20;101445.38;4988949;28;10583;-68
2023/04/07 02:30:49;;;;;;;;;5.00;4.25;;;;;9.11;84.21;101443.34;4991305;28;10459;-66
2023/04/07 02:33:16;;;;;;;;;6.25;5.00;;;;;9.13;83.81;101440.50;4972623;28;10478;-67
2023/04/07 02:35:42;;;;;;;;;4.00;3.50;;;;;9.14;83.80;101443.00;4990992;28;10679;-67
2023/04/07 02:38:09;;;;;;;;;6.75;4.00;;;;;9.16;84.02;101440.16;4973125;28;10589;-67
2023/04/07 02:40:35;;;;;;;;;4.75;2.00;;;;;9.14;83.51;101450.22;4986990;28;10701;-66
2023/04/07 02:43:03;;;;;;;;;4.00;4.00;;;;;9.12;83.36;101445.03;4969348;28;10666;-67
2023/04/07 02:45:30;;;;;;;;;6.00;5.25;;;;;9.11;84.08;101453.25;4958051;28;10558;-67
2023/04/07 02:47:56;;;;;;;;;11.00;10.50;;;;;9.12;83.78;101452.25;4992372;28;10678;-67
2023/04/07 02:50:24;;;;;;;;;6.50;5.00;;;;;9.07;83.70;101454.59;4960335;28;10673;-67
2023/04/07 02:52:51;;;;;;;;;8.25;6.75;;;;;9.01;83.87;101457.97;4955745;28;10631;-65
2023/04/07 02:55:17;;;;;;;;;9.75;4.25;;;;;8.92;83.92;101446.41;4967403;28;10842;-66
2023/04/07 02:57:44;;;;;;;;;6.00;6.00;;;;;8.93;84.20;101452.59;4955339;28;10641;-66
2023/04/07 03:00:21;;;;;;;;;4.75;4.75;;;;;8.89;83.35;101460.16;4969202;28;10695;-67
2023/04/07 03:02:58;;;;;;;;;8.75;5.50;;;;;8.87;84.22;101451.41;4955376;28;11379;-67
2023/04/07 03:05:27;;;;;;;;;7.50;7.50;;;;;8.86;83.27;101449.75;4969866;28;10717;-66
2023/04/07 03:07:53;;;;;;;;;8.00;8.00;;;;;8.82;83.62;101451.91;4974193;28;10638;-66
2023/04/07 03:10:20;;;;;;;;;9.25;7.50;;;;;8.83;84.55;101455.44;4973907;28;10787;-65
2023/04/07 03:12:46;;;;;;;;;10.75;9.50;;;;;8.82;84.47;101451.91;4991105;28;10759;-67
2023/04/07 03:15:13;;;;;;;;;7.00;7.00;;;;;8.82;84.68;101451.91;4965523;28;10747;-67
2023/04/07 03:17:44;;;;;;;;;5.25;5.25;;;;;8.80;84.60;101455.78;4956088;28;10595;-67
2023/04/07 03:20:11;;;;;;;;;6.00;6.00;;;;;8.72;84.20;101453.94;4966804;28;10680;-66
2023/04/07 03:22:38;;;;;;;;;5.75;5.75;;;;;8.67;84.74;101445.56;4973831;28;10750;-67
2023/04/07 03:25:10;;;;;;;;;6.25;4.00;;;;;8.70;84.95;101455.94;4972330;28;10798;-66
2023/04/07 03:27:36;;;;;;;;;5.25;4.75;;;;;8.78;84.58;101447.06;4969670;28;10732;-66
2023/04/07 03:30:05;;;;;;;;;4.25;4.25;;;;;8.78;85.01;101447.88;4973702;28;10593;-67
2023/04/07 03:32:32;;;;;;;;;4.75;4.75;;;;;8.81;84.21;101452.94;4956297;28;10718;-66
2023/04/07 03:34:58;;;;;;;;;5.50;5.50;;;;;8.80;83.92;101453.09;4982963;28;10927;-66
2023/04/07 03:37:25;;;;;;;;;8.25;5.25;;;;;8.79;84.67;101449.59;4971496;28;10916;-67
2023/04/07 03:39:53;;;;;;;;;5.00;5.00;;;;;8.76;84.41;101446.41;4965902;28;10762;-66
2023/04/07 03:42:24;;;;;;;;;6.25;5.75;;;;;8.70;83.54;101450.56;4991227;28;10741;-67
2023/04/07 03:44:56;;;;;;;;;4.00;4.00;;;;;8.69;83.98;101443.53;4962282;28;10738;-66
2023/04/07 03:47:23;;;;;;;;;7.00;5.50;;;;;8.66;83.99;101451.91;4954330;28;10779;-67
2023/04/07 03:49:55;;;;;;;;;4.00;4.00;;;;;8.69;84.15;101458.81;4962450;28;11408;-67
2023/04/07 03:52:22;;;;;;;;;7.25;5.75;;;;;8.66;83.78;101447.38;4972003;28;10721;-67
2023/04/07 03:54:52;;;;;;;;;7.75;7.75;;;;;8.71;84.37;101454.94;4962069;28;10911;-67
2023/04/07 03:57:23;;;;;;;;;5.00;5.00;;;;;8.74;84.39;101456.44;4954221;28;10689;-66
2023/04/07 03:59:50;;;;;;;;;9.50;8.00;;;;;8.66;83.74;101460.78;4956102;28;10854;-67
2023/04/07 04:02:18;;;;;;;;;8.75;6.75;;;;;8.65;83.95;101460.97;4954091;28;10873;-66
2023/04/07 04:04:48;;;;;;;;;4.75;4.75;;;;;8.64;84.32;101468.19;4964412;28;10908;-67
2023/04/07 04:07:16;;;;;;;;;2.75;2.00;;;;;8.63;84.05;101461.16;4969626;28;10802;-67
2023/04/07 04:09:46;;;;;;;;;5.25;4.50;;;;;8.65;84.16;101467.19;5007258;23;11000;-67
2023/04/07 04:12:13;;;;;;;;;3.00;2.50;;;;;8.67;84.11;101464.34;4975628;28;10705;-67
2023/04/07 04:14:49;;;;;;;;;9.00;8.00;;;;;8.73;83.83;101469.03;4995420;28;11327;-67
2023/04/07 04:17:16;;;;;;;;;2.00;1.75;;;;;8.76;83.95;101471.38;4989114;28;11441;-66
2023/04/07 04:19:45;;;;;;;;;2.00;2.00;;;;;8.80;83.79;101466.53;4988396;28;10615;-67
2023/04/07 04:22:24;;;;;;;;;4.75;4.00;;;;;8.82;83.26;101464.50;4986315;28;10594;-67
2023/04/07 04:24:53;;;;;;;;;4.25;4.25;;;;;8.83;83.00;101475.09;4984592;28;10868;-66
2023/04/07 04:27:22;;;;;;;;;3.75;3.75;;;;;8.82;82.74;101468.03;4969054;28;10791;-66
2023/04/07 04:29:55;;;;;;;;;2.00;2.00;;;;;8.82;82.80;101473.38;4988240;28;11524;-67
2023/04/07 04:32:33;;;;;;;;;1.25;1.25;;;;;8.86;82.82;101474.72;4970984;28;10611;-67
2023/04/07 04:35:00;;;;;;;;;5.50;3.75;;;;;8.85;82.60;101482.97;4987039;28;10618;-67
2023/04/07 04:37:29;;;;;;;;;5.75;3.00;;;;;8.84;82.64;101487.50;4988421;28;10855;-66
2023/04/07 04:39:56;;;;;;;;;4.25;4.00;;;;;8.82;83.24;101485.97;4952465;28;10703;-66
2023/04/07 04:42:25;;;;;;;;;0.75;0.75;;;;;8.81;82.89;101477.09;4953242;28;10627;-66
2023/04/07 04:44:52;;;;;;;;;5.00;4.00;;;;;8.79;82.30;101487.16;4962712;28;10572;-67
2023/04/07 04:47:20;;;;;;;;;5.00;3.00;;;;;8.78;82.67;101485.47;4972183;28;11444;-66
2023/04/07 04:49:47;;;;;;;;;2.00;1.00;;;;;8.79;83.05;101489.84;4986522;28;10703;-65
2023/04/07 04:52:13;;;;;;;;;5.75;4.50;;;;;8.81;83.50;101493.19;4967859;28;11408;-67
2023/04/07 04:54:43;;;;;;;;;4.00;2.00;;;;;8.83;82.78;101491.19;4967157;28;10718;-66
2023/04/07 04:57:10;;;;;;;;;2.50;2.00;;;;;8.86;82.94;101498.91;4969141;28;10681;-69
2023/04/07 04:59:38;;;;;;;;;5.00;4.50;;;;;8.83;82.27;101498.38;4975280;28;10553;-67
2023/04/07 05:02:05;;;;;;;;;4.50;3.00;;;;;8.75;83.07;101501.94;4991916;28;10736;-67
2023/04/07 05:04:31;;;;;;;;;5.50;4.00;;;;;8.77;83.39;101504.44;4991365;28;10616;-67
2023/04/07 05:07:07;;;;;;;;;2.00;2.00;;;;;8.83;83.57;101503.75;4973608;28;10698;-66
2023/04/07 05:09:34;;;;;;;;;4.00;2.00;;;;;8.84;83.09;101498.25;4934087;28;1029058;-66
2023/04/07 05:12:01;;;;;;;;;5.00;2.00;;;;;8.87;82.92;101489.84;4976653;28;8853;-66
2023/04/07 05:14:31;;;;;;;;;3.00;3.00;;;;;8.90;83.00;101502.94;4974481;28;10724;-66
2023/04/07 05:17:03;;;;;;;;;5.50;5.50;;;;;8.86;83.04;101506.94;4978392;28;10726;-66
2023/04/07 05:19:29;;;;;;;;;17.75;17.75;;;;;8.78;82.82;101498.06;4980873;28;10620;-67
2023/04/07 05:22:03;;;;;;;;;5.75;4.75;;;;;8.71;82.85;101505.94;4975772;28;11184;-67
2023/04/07 05:24:34;;;;;;;;;7.75;5.75;;;;;8.71;83.25;101507.78;4983007;28;10759;-67
2023/04/07 05:27:01;;;;;;;;;8.00;7.75;;;;;8.75;83.64;101509.97;4984382;28;10714;-67
2023/04/07 05:29:30;;;;;;;;;7.50;5.00;;;;;8.73;83.10;101519.19;4973209;28;10853;-67
2023/04/07 05:31:56;;;;;;;;;6.00;4.75;;;;;8.72;83.26;101515.69;4975730;28;10696;-67
2023/04/07 05:34:24;;;;;;;;;11.75;8.75;;;;;8.76;83.79;101519.72;4990695;28;10777;-67
2023/04/07 05:36:53;;;;;;;;;7.00;4.00;;;;;8.77;83.42;101523.22;4975785;28;10775;-67
2023/04/07 05:39:20;;;;;;;;;5.25;4.00;;;;;8.81;83.74;101521.88;4972294;28;10605;-66
2023/04/07 05:41:50;;;;;;;;;4.50;1.25;;;;;8.85;83.90;101526.75;4966018;28;10783;-67
2023/04/07 05:44:19;;;;;;;;;4.00;2.25;;;;;8.85;83.23;101528.59;4969303;28;10689;-66
2023/04/07 05:46:45;;;;;;;;;3.00;2.50;;;;;8.85;83.03;101524.06;4992956;28;11353;-67
2023/04/07 05:49:14;;;;;;;;;3.25;2.50;;;;;8.87;83.05;101532.81;4974634;28;10794;-68
2023/04/07 05:51:50;;;;;;;;;2.50;2.50;;;;;8.80;83.43;101531.78;4960858;28;10603;-67
2023/04/07 05:54:16;;;;;;;;;6.00;3.50;;;;;8.81;83.57;101528.09;4991112;28;10518;-68
2023/04/07 05:56:43;;;;;;;;;5.75;2.00;;;;;8.80;83.15;101534.47;4991895;28;10808;-66
2023/04/07 05:59:10;;;;;;;;;4.00;3.00;;;;;8.79;83.17;101540.84;4975158;28;10753;-68
2023/04/07 06:01:38;;;;;;;;;3.25;2.00;;;;;8.82;83.08;101545.88;4975873;28;10584;-68
2023/04/07 06:04:04;;;;;;;;;2.25;1.50;;;;;8.85;83.45;101545.56;4988186;28;10702;-68
2023/04/07 06:06:32;;;;;;;;;4.25;2.25;;;;;8.86;83.27;101544.53;4956411;28;10556;-68
2023/04/07 06:08:58;;;;;;;;;8.25;1.25;;;;;8.87;83.12;101540.88;4973647;28;10766;-68
2023/04/07 06:11:26;;;;;;;;;5.50;2.50;;;;;8.88;83.10;101555.97;4991623;28;10478;-68
2023/04/07 06:13:52;;;;;;;;;2.50;2.50;;;;;8.88;82.60;101550.59;4975252;28;10566;-68
2023/04/07 06:16:19;;;;;;;;;5.75;4.00;;;;;8.86;82.75;101557.13;4970164;28;10603;-68
2023/04/07 06:18:46;;;;;;;;;4.00;3.00;;;;;8.84;83.30;101554.63;4968901;28;10791;-66
2023/04/07 06:21:12;;;;;;;;;5.00;5.00;;;;;8.85;82.86;101560.81;4992805;28;10581;-68
2023/04/07 06:23:39;;;;;;;;;2.50;1.00;;;;;8.81;83.14;101559.47;4992432;28;10625;-67
2023/04/07 06:26:09;;;;;;;;;7.00;1.75;;;;;8.85;83.62;101563.50;4992424;28;10535;-68
2023/04/07 06:28:35;;;;;;;;;5.00;3.00;;;;;8.83;83.25;101562.81;4974892;28;10630;-67
2023/04/07 06:31:02;;;;;;;;;6.75;2.00;;;;;8.82;82.98;101572.72;4974807;28;10828;-66
2023/04/07 06:33:28;;;;;;;;;2.00;2.00;;;;;8.81;82.82;101571.06;4991850;28;10528;-68
2023/04/07 06:35:55;;;;;;;;;4.25;4.25;;;;;8.78;82.48;101573.22;4974291;28;10594;-68
2023/04/07 06:38:22;;;;;;;;;6.00;4.00;;;;;8.75;82.69;101578.91;4990772;28;10532;-67
2023/04/07 06:40:48;;;;;;;;;1.50;1.00;;;;;8.77;83.06;101576.91;4987519;28;10938;-67
2023/04/07 06:43:15;;;;;;;;;2.50;2.25;;;;;8.73;81.99;101575.56;4973190;28;10551;-67
2023/04/07 06:45:48;;;;;;;;;2.00;1.00;;;;;8.72;82.64;101572.03;4988552;28;10690;-68
2023/04/07 06:48:15;;;;;;;;;5.00;1.50;;;;;8.74;82.43;101575.38;4972711;28;10571;-68
2023/04/07 06:50:45;;;;;;;;;2.00;2.00;;;;;8.79;82.80;101585.63;4989964;28;10990;-68
2023/04/07 06:53:12;;;;;;;;;5.25;4.25;;;;;8.81;82.43;101587.16;4992284;28;10609;-68
2023/04/07 06:55:38;;;;;;;;;2.00;2.00;;;;;8.86;82.18;101589.34;4991771;28;10555;-68
2023/04/07 06:58:05;;;;;;;;;3.00;2.00;;;;;8.87;82.08;101593.69;4992107;28;10537;-67
2023/04/07 07:00:31;;;;;;;;;2.50;1.25;;;;;8.84;81.78;101597.56;4985743;28;10544;-66
2023/04/07 07:02:58;;;;;;;;;4.00;4.00;;;;;8.84;82.03;101599.41;4971660;28;10623;-66
2023/04/07 07:05:25;;;;;;;;;5.00;3.00;;;;;8.85;82.34;101601.09;4986743;28;10460;-66
2023/04/07 07:07:51;;;;;;;;;2.00;2.00;;;;;8.87;81.12;101597.25;4991843;28;10603;-65
2023/04/07 07:10:19;;;;;;;;;1.00;1.00;;;;;8.87;80.88;101599.06;4991753;28;10529;-67
2023/04/07 07:12:45;;;;;;;;;2.00;2.00;;;;;8.87;81.52;101610.69;4992230;28;10573;-66
2023/04/07 07:15:12;;;;;;;;;2.00;1.25;;;;;8.87;81.45;101605.31;4992169;28;11217;-67
2023/04/07 07:17:38;;;;;;;;;2.00;2.00;;;;;8.82;81.27;101604.09;4976011;28;10538;-67
2023/04/07 07:20:05;;;;;;;;;2.50;2.00;;;;;8.82;80.75;101602.25;4991726;28;10701;-66
2023/04/07 07:22:32;;;;;;;;;4.00;2.00;;;;;8.74;80.12;101602.22;4992627;28;10657;-66
2023/04/07 07:24:58;;;;;;;;;4.00;2.00;;;;;8.72;80.63;101606.09;4991580;28;10426;-66
2023/04/07 07:27:25;;;;;;;;;2.00;2.00;;;;;8.75;80.65;101609.31;4991654;28;10548;-66
2023/04/07 07:29:52;;;;;;;;;1.00;1.00;;;;;8.78;80.34;101613.47;4991226;28;10474;-66
2023/04/07 07:32:18;;;;;;;;;2.25;2.00;;;;;8.80;80.97;101620.38;4991190;28;10647;-66
2023/04/07 07:34:45;;;;;;;;;3.00;3.00;;;;;8.85;80.51;101614.50;4989502;28;11321;-65
2023/04/07 07:37:11;;;;;;;;;2.25;2.25;;;;;8.90;81.02;101622.91;4988458;28;10628;-66
2023/04/07 07:39:38;;;;;;;;;1.75;1.75;;;;;8.93;80.85;101627.97;4990664;28;10611;-66
2023/04/07 07:42:04;;;;;;;;;3.50;1.75;;;;;8.95;80.50;101630.47;4990928;28;10487;-67
2023/04/07 07:44:31;;;;;;;;;1.00;1.00;;;;;8.98;80.38;101628.31;4990633;28;10398;-67
2023/04/07 07:46:58;;;;;;;;;1.25;1.25;;;;;9.02;79.46;101634.19;4991122;28;10546;-66
2023/04/07 07:49:24;;;;;;;;;2.25;2.00;;;;;9.00;80.18;101630.84;4990881;28;10447;-66
2023/04/07 07:51:50;;;;;;;;;1.00;1.00;;;;;9.02;79.72;101639.56;4987941;28;10464;-67
2023/04/07 07:54:17;;;;;;;;;2.00;1.00;;;;;9.03;79.96;101636.69;4989135;28;10310;-66
2023/04/07 07:56:43;;;;;;;;;2.00;1.00;;;;;9.03;79.17;101643.91;4990989;28;10479;-67
2023/04/07 07:59:10;;;;;;;;;0.75;0.75;;;;;9.04;80.07;101643.78;4990773;28;10447;-67
2023/04/07 08:01:36;;;;;;;;;1.75;1.75;;;;;9.09;80.12;101648.66;4990974;28;10374;-66
2023/04/07 08:04:03;;;;;;;;;1.00;1.00;;;;;9.13;79.49;101648.16;4990454;28;10360;-66
2023/04/07 08:06:30;;;;;;;;;2.00;1.25;;;;;9.15;79.20;101651.53;4991037;28;10361;-66
2023/04/07 08:08:57;;;;;;;;;2.00;1.00;;;;;9.14;78.88;101651.66;4982048;28;10524;-67
2023/04/07 08:11:24;;;;;;;;;2.00;1.75;;;;;9.12;78.87;101651.84;4975376;28;10563;-67
2023/04/07 08:13:52;;;;;;;;;1.00;1.00;;;;;9.10;78.70;101655.69;4973701;28;10480;-67
2023/04/07 08:16:20;;;;;;;;;2.00;2.00;;;;;9.12;79.20;101659.06;4985071;28;10373;-66
2023/04/07 08:18:47;;;;;;;;;3.25;3.25;;;;;9.18;78.63;101650.34;4990226;28;11113;-66
2023/04/07 08:21:14;;;;;;;;;2.00;2.00;;;;;9.15;78.24;101656.91;4989573;28;10566;-67
2023/04/07 08:23:41;;;;;;;;;2.00;2.00;;;;;9.12;77.79;101659.91;4990593;28;10440;-66
2023/04/07 08:26:08;;;;;;;;;1.75;0.00;;;;;9.10;78.48;101661.06;4990194;28;10534;-66
2023/04/07 08:28:34;;;;;;;;;2.00;1.50;;;;;9.08;78.68;101665.78;4973289;28;11225;-66
2023/04/07 08:31:00;;;;;;;;;3.25;2.00;;;;;9.14;78.03;101668.63;4970995;28;10536;-66
2023/04/07 08:33:27;;;;;;;;;3.00;2.00;;;;;9.20;77.87;101669.00;4986644;28;10459;-67
2023/04/07 08:35:53;;;;;;;;;1.00;1.00;;;;;9.20;77.70;101675.19;4994285;28;10420;-67
2023/04/07 08:38:21;;;;;;;;;1.75;1.00;;;;;9.21;78.07;101667.97;4994810;28;10434;-67
2023/04/07 08:40:54;;;;;;;;;1.50;1.50;;;;;9.24;77.86;101673.88;4994518;28;10500;-66
2023/04/07 08:43:21;;;;;;;;;1.50;1.50;;;;;9.32;77.79;101673.88;4994673;28;10293;-67
2023/04/07 08:45:49;;;;;;;;;2.00;2.00;;;;;9.28;77.36;101680.59;4992426;28;11159;-66
2023/04/07 08:48:22;;;;;;;;;3.50;1.00;;;;;9.34;77.61;101685.28;4975592;28;10505;-66
2023/04/07 08:50:51;;;;;;;;;1.00;0.25;;;;;9.40;77.05;101684.63;4993339;28;10289;-66
2023/04/07 08:53:23;;;;;;;;;0.75;0.75;;;;;9.45;77.42;101686.81;4994694;28;10326;-66
2023/04/07 08:55:50;;;;;;;;;1.50;1.50;;;;;9.46;77.20;101688.50;4993912;28;10459;-67
2023/04/07 08:58:18;;;;;;;;;2.00;2.00;;;;;9.47;76.66;101698.22;4994044;28;10440;-67
2023/04/07 09:00:45;;;;;;;;;4.75;2.00;;;;;9.42;76.46;101689.84;4986876;28;10416;-67
2023/04/07 09:03:12;;;;;;;;;2.00;1.00;;;;;9.39;76.85;101682.09;4988288;28;10352;-68
2023/04/07 09:05:39;;;;;;;;;2.00;2.00;;;;;9.41;77.10;101683.63;4980240;28;10395;-67
2023/04/07 09:08:05;;;;;;;;;1.00;1.00;;;;;9.46;77.23;101699.25;4974402;28;10396;-66
2023/04/07 09:10:32;;;;;;;;;1.00;1.00;;;;;9.45;76.99;101694.88;4990648;28;10485;-66
2023/04/07 09:12:58;;;;;;;;;1.00;1.00;;;;;9.47;76.98;101692.84;4994270;28;10172;-67
2023/04/07 09:15:30;;;;;;;;;2.50;1.00;;;;;9.54;76.90;101690.34;4980524;28;10310;-67
2023/04/07 09:17:58;;;;;;;;;2.00;2.00;;;;;9.62;76.89;101698.44;4993901;28;11049;-67
2023/04/07 09:20:24;;;;;;;;;1.00;1.00;;;;;9.65;76.29;101707.00;4989080;28;10280;-67
2023/04/07 09:22:51;;;;;;;;;1.00;1.00;;;;;9.65;76.03;101704.31;4992572;28;10943;-67
2023/04/07 09:25:24;;;;;;;;;2.75;1.00;;;;;9.64;76.16;101702.63;4993232;28;10249;-67
2023/04/07 09:28:00;;;;;;;;;1.00;0.50;;;;;9.63;75.89;101708.16;4993817;28;10392;-67
2023/04/07 09:30:28;;;;;;;;;2.00;1.00;;;;;9.54;75.61;101710.00;4974119;28;10362;-67
2023/04/07 09:32:55;;;;;;;;;5.25;2.00;;;;;9.55;76.12;101711.69;4978813;28;10256;-67
2023/04/07 09:35:23;;;;;;;;;1.50;1.50;;;;;9.58;75.91;101715.91;4993119;28;10363;-68
2023/04/07 09:38:02;;;;;;;;;1.00;1.00;;;;;9.62;75.83;101715.41;4993685;28;10208;-67
2023/04/07 09:40:28;;;;;;;;;3.00;2.00;;;;;9.64;75.65;101717.91;4993592;28;10259;-67
2023/04/07 09:42:57;;;;;;;;;1.25;1.25;;;;;9.65;75.47;101712.38;4993725;28;10337;-69
2023/04/07 09:45:25;;;;;;;;;2.00;1.00;;;;;9.72;75.93;101709.00;4993923;28;10306;-66
2023/04/07 09:48:05;;;;;;;;;1.50;1.50;;;;;9.73;75.75;101710.72;4995159;28;10382;-66
2023/04/07 09:50:35;;;;;;;;;1.00;1.00;;;;;9.73;75.01;101714.25;4996561;28;10225;-67
2023/04/07 09:53:03;;;;;;;;;1.00;1.00;;;;;9.71;75.02;101718.09;4977269;28;10317;-67
2023/04/07 09:55:30;;;;;;;;;0.75;0.75;;;;;9.74;74.84;101715.91;4993379;28;10241;-67
2023/04/07 09:57:59;;;;;;;;;1.00;1.00;;;;;9.77;74.43;101722.81;4991949;28;10212;-67
2023/04/07 10:00:25;;;;;;;;;0.75;0.00;;;;;9.77;74.22;101723.66;4993052;28;11010;-67
2023/04/07 10:02:53;;;;;;;;;1.00;1.00;;;;;9.76;73.54;101721.09;4989401;28;10313;-67
2023/04/07 10:05:22;;;;;;;;;1.00;1.00;;;;;9.74;73.76;101718.59;4992695;28;10235;-67
2023/04/07 10:07:49;;;;;;;;;1.00;1.00;;;;;9.71;73.16;101721.59;4992985;28;10322;-67
2023/04/07 10:10:16;;;;;;;;;0.25;0.00;;;;;9.69;74.05;101720.94;5017524;23;10197;-64
2023/04/07 10:12:44;;;;;;;;;1.00;1.00;;;;;9.72;74.50;101715.22;4993986;28;10138;-65
2023/04/07 10:15:14;;;;;;;;;1.00;1.00;;;;;9.76;73.96;101721.94;4991896;28;10368;-65
2023/04/07 10:17:46;;;;;;;;;0.00;0.00;;;;;9.83;73.43;101722.13;4993560;28;10167;-65
2023/04/07 10:20:17;;;;;;;;;1.00;0.25;;;;;9.84;74.15;101724.66;4992631;28;10362;-66
2023/04/07 10:22:47;;;;;;;;;2.00;1.00;;;;;9.81;73.85;101727.69;4975666;28;10160;-66
2023/04/07 10:25:16;;;;;;;;;0.50;0.00;;;;;9.78;73.66;101732.56;4987587;28;10255;-66
2023/04/07 10:27:51;;;;;;;;;1.00;1.00;;;;;9.78;74.37;101733.38;4957607;28;10271;-66
2023/04/07 10:30:23;;;;;;;;;1.00;1.00;;;;;9.78;74.46;101741.44;4992452;28;10161;-66
2023/04/07 10:32:52;;;;;;;;;2.00;1.00;;;;;9.81;74.59;101742.97;4992546;28;10084;-66
2023/04/07 10:35:20;;;;;;;;;3.00;3.00;;;;;9.78;74.72;101740.63;4992197;28;10357;-66
2023/04/07 10:38:06;;;;;;;;;1.25;1.25;;;;;9.85;75.22;101742.47;4992494;28;10525;-65
2023/04/07 10:40:33;;;;;;;;;1.00;1.00;;;;;9.90;75.46;101748.19;4992139;28;10160;-66
2023/04/07 10:43:00;;;;;;;;;5.00;2.75;;;;;9.96;75.25;101752.03;4990975;28;11135;-67
2023/04/07 10:45:47;;;;;;;;;2.00;2.00;;;;;9.98;75.44;101752.72;4988657;28;10389;-67
2023/04/07 10:48:16;;;;;;;;;1.00;1.00;;;;;9.96;75.49;101753.88;4964828;28;10352;-66
2023/04/07 10:50:44;;;;;;;;;0.00;0.00;;;;;9.94;75.52;101756.75;4991790;28;10259;-66
2023/04/07 10:53:12;;;;;;;;;0.25;0.25;;;;;9.95;75.84;101755.75;4992038;28;10315;-66
2023/04/07 10:55:45;;;;;;;;;1.25;0.25;;;;;9.95;76.02;101757.59;4989841;28;10319;-66
2023/04/07 10:58:28;;;;;;;;;4.00;1.00;;;;;9.93;75.27;101759.63;4992012;28;10243;-66
2023/04/07 11:01:07;;;;;;;;;2.00;2.00;;;;;9.89;75.74;101759.97;4991664;28;10216;-66
2023/04/07 11:03:38;;;;;;;;;2.75;2.00;;;;;9.83;76.21;101760.59;4972643;28;10387;-66
2023/04/07 11:06:10;;;;;;;;;1.75;1.75;;;;;9.80;76.83;101760.09;4954788;28;10312;-66
2023/04/07 11:08:42;;;;;;;;;11.50;11.50;;;;;9.79;77.43;101761.94;4972997;28;10163;-68
2023/04/07 11:11:18;;;;;;;;;6.50;5.25;;;;;9.83;77.54;101755.22;4990539;28;10587;-67
2023/04/07 11:13:49;;;;;;;;;5.50;3.75;;;;;9.83;76.90;101757.91;4991721;28;10461;-65
2023/04/07 11:16:18;;;;;;;;;2.00;1.75;;;;;9.87;76.90;101764.66;4991388;28;10351;-65
2023/04/07 11:18:46;;;;;;;;;2.50;2.00;;;;;9.90;77.30;101760.78;4973597;28;10291;-66
2023/04/07 11:21:17;;;;;;;;;6.50;2.00;;;;;9.94;76.37;101764.00;4991760;28;10247;-68
2023/04/07 11:23:45;;;;;;;;;2.00;2.00;;;;;9.95;76.88;101763.81;4991311;28;10350;-66
2023/04/07 11:26:14;;;;;;;;;4.50;4.25;;;;;9.95;77.16;101771.88;4991818;28;10298;-67
2023/04/07 11:28:46;;;;;;;;;5.25;2.00;;;;;9.97;76.56;101769.88;4991188;28;11104;-67
2023/04/07 11:31:21;;;;;;;;;4.00;4.00;;;;;10.06;76.97;101776.09;4970567;28;10358;-67
2023/04/07 11:33:52;;;;;;;;;4.25;4.25;;;;;10.05;76.60;101787.88;4973852;28;10347;-66
2023/04/07 11:36:27;;;;;;;;;4.75;4.25;;;;;10.02;76.72;101782.81;4991079;28;11007;-67
2023/04/07 11:38:55;;;;;;;;;4.75;2.50;;;;;9.94;76.64;101780.97;4991045;28;10314;-67